createdAt,value
2018-11-10T00:00:36.224Z,10.80
2018-11-10T00:03:05.391Z,10.80
2018-11-10T00:05:34.163Z,10.80
2018-11-10T00:08:03.507Z,10.80
2018-11-10T00:10:31.895Z,10.80
2018-11-10T00:13:00.241Z,10.90
2018-11-10T00:15:28.645Z,10.90
2018-11-10T00:17:56.987Z,10.90
2018-11-10T00:20:25.342Z,10.90
2018-11-10T00:22:53.711Z,10.90
2018-11-10T00:25:22.031Z,10.90
2018-11-10T00:27:50.369Z,10.90
2018-11-10T00:30:19.447Z,10.90
2018-11-10T00:32:48.042Z,10.80
2018-11-10T00:35:16.437Z,10.80
2018-11-10T00:37:44.830Z,10.80
2018-11-10T00:40:14.489Z,10.70
2018-11-10T00:42:43.374Z,10.70
2018-11-10T00:45:11.771Z,10.60
2018-11-10T00:47:40.123Z,10.60
2018-11-10T00:50:09.235Z,10.60
2018-11-10T00:52:37.684Z,10.60
2018-11-10T00:55:06.102Z,10.50
2018-11-10T00:57:34.440Z,10.60
2018-11-10T01:00:02.815Z,10.50
2018-11-10T01:02:31.155Z,10.60
2018-11-10T01:04:59.514Z,10.60
2018-11-10T01:07:27.855Z,10.60
2018-11-10T01:09:56.207Z,10.60
2018-11-10T01:12:24.553Z,10.60
2018-11-10T01:14:52.915Z,10.60
2018-11-10T01:17:21.244Z,10.60
2018-11-10T01:19:49.591Z,10.60
2018-11-10T01:22:17.914Z,10.60
2018-11-10T01:24:46.255Z,10.60
2018-11-10T01:27:14.606Z,10.70
2018-11-10T01:29:43.115Z,10.70
2018-11-10T01:32:11.435Z,10.70
2018-11-10T01:34:39.807Z,10.70
2018-11-10T01:37:08.126Z,10.70
2018-11-10T01:39:36.487Z,10.70
2018-11-10T01:42:04.900Z,10.70
2018-11-10T01:44:33.270Z,10.70
2018-11-10T01:47:01.603Z,10.60
2018-11-10T01:49:29.939Z,10.60
2018-11-10T01:51:58.281Z,10.60
2018-11-10T01:54:26.650Z,10.60
2018-11-10T01:56:54.983Z,10.60
2018-11-10T01:59:23.319Z,10.60
2018-11-10T02:01:51.658Z,10.60
2018-11-10T02:04:19.966Z,10.60
2018-11-10T02:06:48.315Z,10.60
2018-11-10T02:09:16.622Z,10.60
2018-11-10T02:11:44.966Z,10.60
2018-11-10T02:14:13.289Z,10.60
2018-11-10T02:16:41.632Z,10.60
2018-11-10T02:19:09.964Z,10.60
2018-11-10T02:21:38.331Z,10.50
2018-11-10T02:24:06.665Z,10.50
2018-11-10T02:26:35.026Z,10.50
2018-11-10T02:29:03.370Z,10.50
2018-11-10T02:31:31.844Z,10.50
2018-11-10T02:34:00.187Z,10.50
2018-11-10T02:36:35.932Z,10.50
2018-11-10T02:39:05.992Z,10.40
2018-11-10T02:41:34.436Z,10.40
2018-11-10T02:44:02.950Z,10.40
2018-11-10T02:46:31.318Z,10.40
2018-11-10T02:48:59.681Z,10.40
2018-11-10T02:51:28.192Z,10.40
2018-11-10T02:53:56.524Z,10.40
2018-11-10T02:56:24.912Z,10.40
2018-11-10T02:58:53.270Z,10.40
2018-11-10T03:01:21.651Z,10.40
2018-11-10T03:03:49.996Z,10.40
2018-11-10T03:06:18.375Z,10.40
2018-11-10T03:08:46.770Z,10.40
2018-11-10T03:11:15.131Z,10.40
2018-11-10T03:13:43.459Z,10.40
2018-11-10T03:16:11.837Z,10.40
2018-11-10T03:18:40.170Z,10.40
2018-11-10T03:21:08.552Z,10.40
2018-11-10T03:23:36.917Z,10.40
2018-11-10T03:26:05.447Z,10.40
2018-11-10T03:28:33.853Z,10.40
2018-11-10T03:31:02.249Z,10.40
2018-11-10T03:33:30.591Z,10.40
2018-11-10T03:35:58.974Z,10.40
2018-11-10T03:38:27.499Z,10.40
2018-11-10T03:40:55.879Z,10.40
2018-11-10T03:43:24.209Z,10.40
2018-11-10T03:45:52.604Z,10.40
2018-11-10T03:48:20.963Z,10.40
2018-11-10T03:50:49.336Z,10.40
2018-11-10T03:53:17.667Z,10.50
2018-11-10T03:55:46.061Z,10.50
2018-11-10T03:58:14.392Z,10.50
2018-11-10T04:00:42.772Z,10.50
2018-11-10T04:03:11.109Z,10.50
2018-11-10T04:05:39.472Z,10.50
2018-11-10T04:08:07.867Z,10.60
2018-11-10T04:10:36.217Z,10.60
2018-11-10T04:13:04.599Z,10.60
2018-11-10T04:15:32.968Z,10.60
2018-11-10T04:18:01.333Z,10.60
2018-11-10T04:20:29.683Z,10.60
2018-11-10T04:22:58.050Z,10.60
2018-11-10T04:25:26.396Z,10.60
2018-11-10T04:27:54.766Z,10.60
2018-11-10T04:30:23.160Z,10.70
2018-11-10T04:32:51.542Z,10.70
2018-11-10T04:35:19.892Z,10.70
2018-11-10T04:37:48.312Z,10.70
2018-11-10T04:40:16.895Z,10.70
2018-11-10T04:42:45.301Z,10.70
2018-11-10T04:45:13.718Z,10.80
2018-11-10T04:47:42.086Z,10.80
2018-11-10T04:50:13.752Z,10.80
2018-11-10T04:52:42.354Z,10.90
2018-11-10T04:55:12.959Z,10.90
2018-11-10T04:57:41.589Z,10.90
2018-11-10T05:00:14.832Z,10.90
2018-11-10T05:02:44.165Z,10.90
2018-11-10T05:05:12.541Z,10.90
2018-11-10T05:07:40.963Z,10.90
2018-11-10T05:10:10.291Z,10.90
2018-11-10T05:12:38.740Z,10.90
2018-11-10T05:15:07.858Z,10.90
2018-11-10T05:17:36.232Z,10.90
2018-11-10T05:20:05.068Z,10.90
2018-11-10T05:22:33.505Z,11.00
2018-11-10T05:25:01.964Z,11.00
2018-11-10T05:27:30.384Z,11.00
2018-11-10T05:29:59.292Z,11.00
2018-11-10T05:32:27.727Z,11.00
2018-11-10T05:34:56.140Z,11.00
2018-11-10T05:37:24.575Z,11.00
2018-11-10T05:39:52.982Z,11.00
2018-11-10T05:42:21.401Z,11.00
2018-11-10T05:44:49.748Z,11.00
2018-11-10T05:47:18.188Z,11.00
2018-11-10T05:49:46.540Z,11.10
2018-11-10T05:52:15.042Z,11.10
2018-11-10T05:54:43.536Z,11.10
2018-11-10T05:57:12.038Z,11.10
2018-11-10T05:59:40.329Z,11.10
2018-11-10T06:02:08.760Z,11.20
2018-11-10T06:04:37.121Z,11.20
2018-11-10T06:07:05.741Z,11.20
2018-11-10T06:09:34.119Z,11.20
2018-11-10T06:12:02.496Z,11.20
2018-11-10T06:14:30.923Z,11.20
2018-11-10T06:16:59.257Z,11.20
2018-11-10T06:19:27.642Z,11.20
2018-11-10T06:21:55.980Z,11.20
2018-11-10T06:24:24.384Z,11.20
2018-11-10T06:26:52.742Z,11.20
2018-11-10T06:29:21.113Z,11.20
2018-11-10T06:31:49.469Z,11.20
2018-11-10T06:34:17.859Z,11.20
2018-11-10T06:36:46.243Z,11.20
2018-11-10T06:39:14.677Z,11.20
2018-11-10T06:41:43.041Z,11.30
2018-11-10T06:44:11.416Z,11.30
2018-11-10T06:46:39.791Z,11.30
2018-11-10T06:49:08.796Z,11.30
2018-11-10T06:51:37.141Z,11.30
2018-11-10T06:54:05.821Z,11.30
2018-11-10T06:56:34.219Z,11.30
2018-11-10T06:59:02.616Z,11.30
2018-11-10T07:01:31.022Z,11.30
2018-11-10T07:03:59.396Z,11.30
2018-11-10T07:06:27.828Z,11.30
2018-11-10T07:08:56.217Z,11.30
2018-11-10T07:11:24.577Z,11.30
2018-11-10T07:13:52.955Z,11.30
2018-11-10T07:16:21.314Z,11.30
2018-11-10T07:18:49.672Z,11.30
2018-11-10T07:21:18.081Z,11.30
2018-11-10T07:23:46.417Z,11.20
2018-11-10T07:26:14.802Z,11.20
2018-11-10T07:28:43.163Z,11.20
2018-11-10T07:31:11.509Z,11.20
2018-11-10T07:33:39.963Z,11.20
2018-11-10T07:36:08.346Z,11.30
2018-11-10T07:38:36.729Z,11.30
2018-11-10T07:41:05.675Z,11.40
2018-11-10T07:43:34.060Z,11.40
2018-11-10T07:46:02.452Z,11.40
2018-11-10T07:48:30.829Z,11.50
2018-11-10T07:50:59.237Z,11.50
2018-11-10T07:53:27.610Z,11.50
2018-11-10T07:55:56.152Z,11.50
2018-11-10T07:58:24.480Z,11.60
2018-11-10T08:00:52.831Z,11.60
2018-11-10T08:03:21.208Z,11.60
2018-11-10T08:05:49.551Z,11.60
2018-11-10T08:08:17.889Z,11.60
2018-11-10T08:10:46.267Z,11.60
2018-11-10T08:13:14.623Z,11.60
2018-11-10T08:15:42.985Z,11.70
2018-11-10T08:18:11.335Z,11.70
2018-11-10T08:20:39.713Z,11.60
2018-11-10T08:23:08.060Z,11.70
2018-11-10T08:25:36.439Z,11.70
2018-11-10T08:28:04.823Z,11.70
2018-11-10T08:30:33.193Z,11.70
2018-11-10T08:33:01.594Z,11.80
2018-11-10T08:35:29.937Z,11.80
2018-11-10T08:37:58.282Z,11.80
2018-11-10T08:40:26.664Z,11.80
2018-11-10T08:42:54.995Z,11.80
2018-11-10T08:45:23.459Z,11.90
2018-11-10T08:47:51.987Z,11.90
2018-11-10T08:50:20.619Z,11.90
2018-11-10T08:52:49.162Z,12.00
2018-11-10T08:55:17.603Z,12.00
2018-11-10T08:57:47.243Z,12.00
2018-11-10T09:00:15.684Z,12.00
2018-11-10T09:02:44.227Z,12.00
2018-11-10T09:05:13.092Z,12.00
2018-11-10T09:07:41.901Z,12.00
2018-11-10T09:10:12.145Z,12.00
2018-11-10T09:12:40.628Z,12.10
2018-11-10T09:15:11.878Z,12.10
2018-11-10T09:17:40.696Z,12.10
2018-11-10T09:20:10.869Z,12.20
2018-11-10T09:22:39.301Z,12.20
2018-11-10T09:25:09.632Z,12.20
2018-11-10T09:27:38.100Z,12.20
2018-11-10T09:30:07.616Z,12.20
2018-11-10T09:32:35.963Z,12.20
2018-11-10T09:35:04.473Z,12.20
2018-11-10T09:37:32.823Z,12.20
2018-11-10T09:40:01.304Z,12.30
2018-11-10T09:42:29.654Z,12.30
2018-11-10T09:44:58.073Z,12.30
2018-11-10T09:47:26.626Z,12.40
2018-11-10T09:49:55.040Z,12.40
2018-11-10T09:52:23.349Z,12.40
2018-11-10T09:54:51.751Z,12.50
2018-11-10T09:57:20.084Z,12.60
2018-11-10T09:59:48.480Z,12.60
2018-11-10T10:02:17.142Z,12.70
2018-11-10T10:04:45.313Z,12.70
2018-11-10T10:07:16.255Z,12.70
2018-11-10T10:09:44.784Z,12.70
2018-11-10T10:12:13.158Z,12.70
2018-11-10T10:14:41.500Z,12.70
2018-11-10T10:17:09.917Z,12.80
2018-11-10T10:19:38.268Z,12.80
2018-11-10T10:22:06.599Z,12.80
2018-11-10T10:24:34.943Z,12.80
2018-11-10T10:27:03.323Z,12.90
2018-11-10T10:29:31.716Z,12.90
2018-11-10T10:32:00.638Z,13.00
2018-11-10T10:34:29.121Z,13.00
2018-11-10T10:36:57.703Z,13.00
2018-11-10T10:39:26.407Z,13.10
2018-11-10T10:41:54.719Z,13.10
2018-11-10T10:44:23.096Z,13.10
2018-11-10T10:46:51.517Z,13.10
2018-11-10T10:49:19.894Z,13.10
2018-11-10T10:51:48.229Z,13.10
2018-11-10T10:54:16.626Z,13.10
2018-11-10T10:56:44.974Z,13.10
2018-11-10T10:59:13.364Z,13.10
2018-11-10T11:01:46.976Z,13.10
2018-11-10T11:04:20.528Z,13.10
2018-11-10T11:06:48.875Z,13.00
2018-11-10T11:09:17.266Z,13.10
2018-11-10T11:11:45.636Z,13.10
2018-11-10T11:14:13.987Z,13.00
2018-11-10T11:16:42.487Z,13.00
2018-11-10T11:19:10.947Z,13.00
2018-11-10T11:21:39.317Z,13.00
2018-11-10T11:24:07.770Z,12.90
2018-11-10T11:26:36.201Z,12.90
2018-11-10T11:29:04.727Z,12.90
2018-11-10T11:31:33.152Z,12.90
2018-11-10T11:34:01.659Z,12.90
2018-11-10T11:36:30.110Z,12.80
2018-11-10T11:38:58.528Z,12.80
2018-11-10T11:41:27.040Z,12.80
2018-11-10T11:43:55.293Z,12.70
2018-11-10T11:46:26.408Z,12.70
2018-11-10T11:48:55.416Z,12.70
2018-11-10T11:51:23.772Z,12.70
2018-11-10T11:53:52.105Z,12.70
2018-11-10T11:56:20.731Z,12.70
2018-11-10T11:58:50.267Z,12.70
2018-11-10T12:01:19.641Z,12.60
2018-11-10T12:03:48.000Z,12.60
2018-11-10T12:06:16.430Z,12.60
2018-11-10T12:08:44.779Z,12.60
2018-11-10T12:11:13.140Z,12.60
2018-11-10T12:13:42.193Z,12.50
2018-11-10T12:16:10.589Z,12.50
2018-11-10T12:18:38.955Z,12.50
2018-11-10T12:21:07.379Z,12.50
2018-11-10T12:23:35.677Z,12.50
2018-11-10T12:26:04.065Z,12.50
2018-11-10T12:28:32.412Z,12.50
2018-11-10T12:31:00.784Z,12.50
2018-11-10T12:33:29.159Z,12.50
2018-11-10T12:35:57.524Z,12.50
2018-11-10T12:38:25.863Z,12.50
2018-11-10T12:40:55.405Z,12.50
2018-11-10T12:43:23.772Z,12.50
2018-11-10T12:45:52.122Z,12.40
2018-11-10T12:48:20.476Z,12.50
2018-11-10T12:50:48.848Z,12.40
2018-11-10T12:53:17.179Z,12.40
2018-11-10T12:55:45.536Z,12.40
2018-11-10T12:58:13.875Z,12.40
2018-11-10T13:00:42.225Z,12.40
2018-11-10T13:03:10.588Z,12.40
2018-11-10T13:05:39.007Z,12.40
2018-11-10T13:08:07.451Z,12.40
2018-11-10T13:10:35.883Z,12.50
2018-11-10T13:13:04.375Z,12.50
2018-11-10T13:15:32.771Z,12.50
2018-11-10T13:18:01.234Z,12.50
2018-11-10T13:20:29.559Z,12.50
2018-11-10T13:22:58.401Z,12.50
2018-11-10T13:25:27.287Z,12.50
2018-11-10T13:27:55.681Z,12.50
2018-11-10T13:30:24.017Z,12.60
2018-11-10T13:32:52.372Z,12.60
2018-11-10T13:35:22.218Z,12.60
2018-11-10T13:37:52.579Z,12.60
2018-11-10T13:40:22.837Z,12.60
2018-11-10T13:42:52.961Z,12.60
2018-11-10T13:45:23.644Z,12.70
2018-11-10T13:47:53.594Z,12.70
2018-11-10T13:50:23.319Z,12.70
2018-11-10T13:52:54.110Z,12.70
2018-11-10T13:55:23.747Z,12.70
2018-11-10T13:57:54.256Z,12.70
2018-11-10T14:00:24.201Z,12.80
2018-11-10T14:02:54.613Z,12.80
2018-11-10T14:05:23.074Z,12.80
2018-11-10T14:07:51.383Z,12.80
2018-11-10T14:10:19.826Z,12.80
2018-11-10T14:12:48.189Z,12.80
2018-11-10T14:15:16.474Z,12.80
2018-11-10T14:17:44.937Z,12.80
2018-11-10T14:20:14.452Z,12.80
2018-11-10T14:22:42.957Z,12.80
2018-11-10T14:25:13.176Z,12.80
2018-11-10T14:27:42.296Z,12.80
2018-11-10T14:30:12.693Z,12.80
2018-11-10T14:32:42.273Z,12.80
2018-11-10T14:35:11.092Z,12.70
2018-11-10T14:37:39.479Z,12.70
2018-11-10T14:40:09.604Z,12.70
2018-11-10T14:42:38.516Z,12.70
2018-11-10T14:45:09.645Z,12.70
2018-11-10T14:47:38.002Z,12.60
2018-11-10T14:50:07.556Z,12.60
2018-11-10T14:52:36.041Z,12.60
2018-11-10T14:55:04.587Z,12.60
2018-11-10T14:57:32.925Z,12.60
2018-11-10T15:00:01.418Z,12.60
2018-11-10T15:02:29.767Z,12.60
2018-11-10T15:04:58.112Z,12.60
2018-11-10T15:07:26.443Z,12.60
2018-11-10T15:09:54.792Z,12.60
2018-11-10T15:12:23.148Z,12.60
2018-11-10T15:14:51.697Z,12.60
2018-11-10T15:17:20.087Z,12.60
2018-11-10T15:19:49.608Z,12.60
2018-11-10T15:22:18.198Z,12.60
2018-11-10T15:24:46.559Z,12.60
2018-11-10T15:27:14.876Z,12.60
2018-11-10T15:29:43.247Z,12.70
2018-11-10T15:32:11.584Z,12.70
2018-11-10T15:34:39.937Z,12.70
2018-11-10T15:37:08.851Z,12.70
2018-11-10T15:39:37.567Z,12.70
2018-11-10T15:42:07.236Z,12.70
2018-11-10T15:44:36.839Z,12.70
2018-11-10T15:47:05.474Z,12.70
2018-11-10T15:49:34.986Z,12.70
2018-11-10T15:52:03.365Z,12.70
2018-11-10T15:54:32.331Z,12.70
2018-11-10T15:57:01.885Z,12.70
2018-11-10T15:59:30.372Z,12.70
2018-11-10T16:01:59.740Z,12.70
2018-11-10T16:04:28.499Z,12.70
2018-11-10T16:06:57.224Z,12.70
2018-11-10T16:09:26.319Z,12.80
2018-11-10T16:11:55.764Z,12.80
2018-11-10T16:14:24.618Z,12.80
2018-11-10T16:16:54.186Z,12.80
2018-11-10T16:19:23.240Z,12.80
2018-11-10T16:21:52.228Z,12.80
2018-11-10T16:24:21.301Z,12.80
2018-11-10T16:26:50.362Z,12.80
2018-11-10T16:29:18.706Z,12.80
2018-11-10T16:31:47.034Z,12.80
2018-11-10T16:34:15.395Z,12.80
2018-11-10T16:36:43.740Z,12.80
2018-11-10T16:39:12.055Z,12.80
2018-11-10T16:41:40.470Z,12.90
2018-11-10T16:44:08.920Z,12.90
2018-11-10T16:46:37.363Z,12.90
2018-11-10T16:49:05.817Z,12.90
2018-11-10T16:51:34.161Z,12.90
2018-11-10T16:54:02.471Z,12.90
2018-11-10T16:56:30.838Z,12.90
2018-11-10T16:58:59.230Z,12.90
2018-11-10T17:01:27.541Z,12.90
2018-11-10T17:03:55.883Z,12.90
2018-11-10T17:06:24.226Z,12.90
2018-11-10T17:08:52.588Z,12.90
2018-11-10T17:11:20.916Z,12.90
2018-11-10T17:13:49.237Z,12.90
2018-11-10T17:16:17.715Z,12.90
2018-11-10T17:18:46.176Z,12.80
2018-11-10T17:21:14.477Z,12.90
2018-11-10T17:23:42.787Z,12.90
2018-11-10T17:26:11.119Z,12.90
2018-11-10T17:28:39.571Z,12.90
2018-11-10T17:31:07.915Z,12.90
2018-11-10T17:33:36.255Z,12.90
2018-11-10T17:36:04.943Z,12.90
2018-11-10T17:38:33.292Z,12.90
2018-11-10T17:41:01.633Z,12.90
2018-11-10T17:43:29.944Z,12.90
2018-11-10T17:45:58.340Z,12.90
2018-11-10T17:48:26.683Z,13.00
2018-11-10T17:50:54.998Z,13.00
2018-11-10T17:53:23.362Z,13.00
2018-11-10T17:55:51.732Z,13.00
2018-11-10T17:58:20.076Z,12.90
2018-11-10T18:00:48.402Z,12.90
2018-11-10T18:03:16.743Z,12.90
2018-11-10T18:05:45.072Z,12.90
2018-11-10T18:08:13.426Z,12.90
2018-11-10T18:10:41.745Z,13.00
2018-11-10T18:13:10.156Z,13.00
2018-11-10T18:15:38.389Z,13.00
2018-11-10T18:18:06.720Z,12.90
2018-11-10T18:20:35.046Z,12.90
2018-11-10T18:23:03.385Z,12.90
2018-11-10T18:25:31.837Z,12.90
2018-11-10T18:28:00.048Z,12.90
2018-11-10T18:30:28.418Z,12.90
2018-11-10T18:32:56.755Z,12.90
2018-11-10T18:35:25.064Z,13.00
2018-11-10T18:37:53.409Z,13.00
2018-11-10T18:40:21.737Z,13.00
2018-11-10T18:42:50.067Z,13.00
2018-11-10T18:45:18.432Z,13.00
2018-11-10T18:47:46.771Z,13.00
2018-11-10T18:50:15.970Z,13.00
2018-11-10T18:52:44.335Z,13.00
2018-11-10T18:55:13.478Z,13.00
2018-11-10T18:57:42.189Z,13.00
2018-11-10T19:00:12.699Z,13.10
2018-11-10T19:02:41.175Z,13.10
2018-11-10T19:05:11.098Z,13.10
2018-11-10T19:07:39.572Z,13.10
2018-11-10T19:10:09.589Z,13.10
2018-11-10T19:12:38.035Z,13.10
2018-11-10T19:15:09.048Z,13.10
2018-11-10T19:17:37.367Z,13.10
2018-11-10T19:20:06.104Z,13.10
2018-11-10T19:22:34.465Z,13.00
2018-11-10T19:25:02.824Z,13.00
2018-11-10T19:27:31.180Z,13.00
2018-11-10T19:29:59.506Z,13.00
2018-11-10T19:32:27.863Z,13.00
2018-11-10T19:34:56.192Z,13.00
2018-11-10T19:37:24.582Z,13.00
2018-11-10T19:39:52.932Z,13.00
2018-11-10T19:42:21.268Z,13.00
2018-11-10T19:44:49.707Z,13.00
2018-11-10T19:47:18.023Z,12.90
2018-11-10T19:49:46.359Z,12.90
2018-11-10T19:52:14.811Z,12.90
2018-11-10T19:54:43.892Z,12.90
2018-11-10T19:57:12.201Z,12.90
2018-11-10T19:59:40.591Z,12.80
2018-11-10T20:02:08.926Z,12.80
2018-11-10T20:04:37.259Z,12.80
2018-11-10T20:07:05.576Z,12.80
2018-11-10T20:09:33.907Z,12.80
2018-11-10T20:12:02.242Z,12.80
2018-11-10T20:14:30.569Z,12.70
2018-11-10T20:16:58.884Z,12.70
2018-11-10T20:19:27.260Z,12.70
2018-11-10T20:21:55.559Z,12.70
2018-11-10T20:24:23.960Z,12.70
2018-11-10T20:26:52.288Z,12.70
2018-11-10T20:29:20.604Z,12.70
2018-11-10T20:31:49.482Z,12.70
2018-11-10T20:34:17.863Z,12.70
2018-11-10T20:36:46.262Z,12.70
2018-11-10T20:39:14.659Z,12.70
2018-11-10T20:41:43.102Z,12.70
2018-11-10T20:44:11.411Z,12.70
2018-11-10T20:46:39.742Z,12.70
2018-11-10T20:49:08.340Z,12.70
2018-11-10T20:51:36.683Z,12.70
2018-11-10T20:54:05.615Z,12.60
2018-11-10T20:56:33.950Z,12.60
2018-11-10T20:59:02.383Z,12.60
2018-11-10T21:01:30.922Z,12.60
2018-11-10T21:03:59.268Z,12.60
2018-11-10T21:06:28.186Z,12.60
2018-11-10T21:08:56.533Z,12.70
2018-11-10T21:11:24.891Z,12.70
2018-11-10T21:13:53.264Z,12.70
2018-11-10T21:16:21.609Z,12.70
2018-11-10T21:18:49.966Z,12.70
2018-11-10T21:21:18.323Z,12.70
2018-11-10T21:23:46.704Z,12.70
2018-11-10T21:26:15.063Z,12.70
2018-11-10T21:28:43.427Z,12.70
2018-11-10T21:31:11.746Z,12.80
2018-11-10T21:33:40.257Z,12.80
2018-11-10T21:36:08.539Z,12.80
2018-11-10T21:38:37.053Z,12.80
2018-11-10T21:41:05.678Z,12.80
2018-11-10T21:43:34.082Z,12.80
2018-11-10T21:46:02.364Z,12.80
2018-11-10T21:48:30.719Z,12.80
2018-11-10T21:50:59.047Z,12.80
2018-11-10T21:53:27.401Z,12.80
2018-11-10T21:55:55.754Z,12.80
2018-11-10T21:58:24.101Z,12.80
2018-11-10T22:00:52.466Z,12.80
2018-11-10T22:03:21.013Z,12.80
2018-11-10T22:05:49.328Z,12.80
2018-11-10T22:08:17.693Z,12.80
2018-11-10T22:10:46.036Z,12.80
2018-11-10T22:13:15.190Z,12.80
2018-11-10T22:15:43.640Z,12.80
2018-11-10T22:18:11.947Z,12.70
2018-11-10T22:20:40.270Z,12.70
2018-11-10T22:23:08.710Z,12.70
2018-11-10T22:25:37.026Z,12.70
2018-11-10T22:28:06.013Z,12.70
2018-11-10T22:30:34.361Z,12.70
2018-11-10T22:33:02.709Z,12.60
2018-11-10T22:35:31.040Z,12.60
2018-11-10T22:38:00.501Z,12.60
2018-11-10T22:40:28.956Z,12.60
2018-11-10T22:42:57.314Z,12.60
2018-11-10T22:45:25.628Z,12.60
2018-11-10T22:47:54.185Z,12.60
2018-11-10T22:50:23.809Z,12.60
2018-11-10T22:52:52.143Z,12.60
2018-11-10T22:55:20.591Z,12.60
2018-11-10T22:57:48.920Z,12.60
2018-11-10T23:00:21.092Z,12.60
2018-11-10T23:02:50.614Z,12.60
2018-11-10T23:05:19.819Z,12.60
2018-11-10T23:07:48.200Z,12.60
2018-11-10T23:10:16.990Z,12.60
2018-11-10T23:12:46.303Z,12.60
2018-11-10T23:15:14.672Z,12.50
2018-11-10T23:17:42.971Z,12.50
2018-11-10T23:20:12.855Z,12.50
2018-11-10T23:22:41.281Z,12.50
2018-11-10T23:25:11.559Z,12.50
2018-11-10T23:27:39.865Z,12.50
2018-11-10T23:30:14.069Z,12.50
2018-11-10T23:32:42.436Z,12.50
2018-11-10T23:35:11.542Z,12.50
2018-11-10T23:37:40.300Z,12.50
2018-11-10T23:40:10.539Z,12.50
2018-11-10T23:42:38.935Z,12.50
2018-11-10T23:45:07.470Z,12.50
2018-11-10T23:47:35.841Z,12.50
2018-11-10T23:50:04.668Z,12.50
2018-11-10T23:52:33.047Z,12.50
2018-11-10T23:55:01.401Z,12.50
2018-11-10T23:57:29.739Z,12.50
2018-11-10T23:59:58.095Z,12.50
